createdAt,value
2022-09-29T00:05:00.328Z,15.60
2022-09-29T00:10:02.146Z,15.37
2022-09-29T00:15:05.178Z,15.60
2022-09-29T00:20:11.270Z,14.73
2022-09-29T00:25:16.059Z,18.23
2022-09-29T00:30:21.082Z,19.67
2022-09-29T00:35:27.547Z,23.80
2022-09-29T00:40:34.811Z,22.30
2022-09-29T00:45:39.591Z,29.33
2022-09-29T00:50:51.338Z,32.77
2022-09-29T00:56:03.973Z,23.97
2022-09-29T01:01:10.405Z,19.63
2022-09-29T01:06:36.439Z,23.67
2022-09-29T01:11:40.536Z,18.83
2022-09-29T01:16:45.838Z,21.30
2022-09-29T01:22:16.801Z,18.30
2022-09-29T01:27:20.531Z,14.10
2022-09-29T01:32:41.308Z,20.63
2022-09-29T01:37:59.036Z,22.17
2022-09-29T01:43:12.001Z,15.63
2022-09-29T01:48:22.771Z,18.33
2022-09-29T01:53:36.286Z,15.37
2022-09-29T01:59:19.644Z,15.23
2022-09-29T02:04:32.404Z,17.60
2022-09-29T02:09:44.597Z,23.00
2022-09-29T02:14:53.742Z,17.03
2022-09-29T02:19:55.729Z,25.00
2022-09-29T02:25:01.221Z,24.33
2022-09-29T02:30:08.528Z,20.33
2022-09-29T02:35:15.611Z,24.93
2022-09-29T02:40:52.609Z,21.03
2022-09-29T02:46:24.470Z,19.97
2022-09-29T02:51:26.077Z,28.37
2022-09-29T02:56:50.049Z,23.60
2022-09-29T03:01:56.122Z,31.30
2022-09-29T03:07:03.420Z,28.70
2022-09-29T03:12:05.175Z,21.73
2022-09-29T03:17:09.224Z,18.20
2022-09-29T03:22:14.169Z,15.47
2022-09-29T03:27:16.018Z,17.30
2022-09-29T03:32:18.898Z,28.33
2022-09-29T03:37:20.798Z,25.77
2022-09-29T03:42:24.365Z,21.57
2022-09-29T03:47:28.432Z,19.53
2022-09-29T03:52:32.410Z,21.67
2022-09-29T03:57:39.040Z,17.33
2022-09-29T04:02:44.099Z,17.20
2022-09-29T04:07:48.212Z,26.23
2022-09-29T04:12:52.028Z,32.07
2022-09-29T04:17:58.573Z,27.97
2022-09-29T04:23:02.953Z,21.97
2022-09-29T04:28:06.990Z,30.20
2022-09-29T04:33:09.145Z,32.07
2022-09-29T04:38:13.136Z,39.97
2022-09-29T04:43:19.754Z,34.10
2022-09-29T04:48:25.033Z,30.07
2022-09-29T04:53:33.456Z,24.97
2022-09-29T04:58:35.547Z,31.63
2022-09-29T05:03:44.577Z,30.77
2022-09-29T05:08:47.227Z,30.37
2022-09-29T05:13:51.019Z,37.90
2022-09-29T05:18:55.121Z,35.50
2022-09-29T05:24:01.329Z,31.93
2022-09-29T05:29:05.595Z,46.27
2022-09-29T05:34:07.464Z,51.90
2022-09-29T05:39:14.069Z,73.73
2022-09-29T05:44:16.924Z,33.63
2022-09-29T05:49:21.473Z,35.20
2022-09-29T05:54:27.370Z,33.23
2022-09-29T05:59:30.077Z,50.33
2022-09-29T06:04:31.835Z,34.80
2022-09-29T06:09:36.113Z,149.30
2022-09-29T06:14:41.615Z,57.30
2022-09-29T06:19:44.956Z,70.07
2022-09-29T06:24:46.761Z,58.27
2022-09-29T06:29:53.187Z,57.87
2022-09-29T06:35:13.839Z,61.07
2022-09-29T06:40:16.040Z,28.17
2022-09-29T06:45:22.177Z,41.47
2022-09-29T06:50:26.654Z,28.67
2022-09-29T06:55:34.139Z,45.93
2022-09-29T07:00:40.100Z,46.50
2022-09-29T07:05:52.747Z,30.87
2022-09-29T07:11:08.954Z,24.97
2022-09-29T07:16:13.331Z,25.37
2022-09-29T07:21:17.826Z,32.97
2022-09-29T07:26:28.018Z,24.07
2022-09-29T07:31:49.014Z,33.50
2022-09-29T07:36:53.105Z,32.50
2022-09-29T07:41:58.752Z,30.70
2022-09-29T07:47:02.876Z,38.63
2022-09-29T07:52:05.044Z,25.63
2022-09-29T07:57:09.329Z,26.80
2022-09-29T08:02:13.755Z,29.33
2022-09-29T08:07:18.520Z,24.17
2022-09-29T08:12:20.323Z,27.93
2022-09-29T08:17:30.811Z,29.33
2022-09-29T08:22:32.556Z,24.63
2022-09-29T08:27:39.944Z,25.40
2022-09-29T08:32:57.469Z,28.53
2022-09-29T08:38:01.809Z,25.17
2022-09-29T08:43:29.112Z,22.00
2022-09-29T08:48:53.726Z,21.37
2022-09-29T08:54:03.791Z,22.30
2022-09-29T08:59:12.438Z,23.67
2022-09-29T09:04:39.647Z,25.30
2022-09-29T09:09:57.981Z,19.20
2022-09-29T09:15:18.075Z,18.80
2022-09-29T09:20:37.213Z,22.13
2022-09-29T09:25:44.272Z,20.10
2022-09-29T09:30:59.448Z,23.40
2022-09-29T09:36:14.076Z,21.33
2022-09-29T09:41:23.156Z,30.30
2022-09-29T09:46:34.921Z,23.23
2022-09-29T09:51:50.135Z,19.53
2022-09-29T09:57:09.205Z,19.52
2022-09-29T10:02:22.097Z,17.25
2022-09-29T10:07:30.706Z,18.30
2022-09-29T10:12:32.524Z,18.67
2022-09-29T10:17:43.048Z,19.42
2022-09-29T10:22:49.776Z,16.98
2022-09-29T10:27:57.695Z,17.42
2022-09-29T10:33:02.494Z,17.42
2022-09-29T10:38:26.505Z,21.15
2022-09-29T10:43:38.029Z,18.65
2022-09-29T10:48:41.570Z,16.77
2022-09-29T10:53:44.644Z,15.90
2022-09-29T10:59:04.396Z,16.92
2022-09-29T11:04:16.049Z,17.80
2022-09-29T11:09:19.770Z,17.05
2022-09-29T11:14:31.887Z,19.10
2022-09-29T11:19:34.221Z,22.08
2022-09-29T11:24:52.011Z,19.52
2022-09-29T11:30:03.114Z,20.13
2022-09-29T11:35:40.812Z,16.40
2022-09-29T11:41:06.733Z,15.93
2022-09-29T11:46:35.201Z,14.65
2022-09-29T11:52:11.061Z,13.68
2022-09-29T11:57:40.119Z,13.25
2022-09-29T12:02:50.393Z,12.00
2022-09-29T12:07:58.210Z,13.50
2022-09-29T12:13:21.032Z,11.65
2022-09-29T12:18:49.328Z,6.20
2022-09-29T12:23:51.056Z,4.93
2022-09-29T12:28:58.765Z,3.15
2022-09-29T12:34:13.021Z,2.38
2022-09-29T12:39:33.292Z,1.90
2022-09-29T12:44:42.666Z,1.92
2022-09-29T12:49:59.581Z,1.73
2022-09-29T12:55:03.902Z,1.43
2022-09-29T13:00:14.188Z,1.40
2022-09-29T13:05:24.997Z,1.80
2022-09-29T13:10:42.074Z,1.83
2022-09-29T13:15:56.639Z,3.15
2022-09-29T13:21:11.275Z,2.53
2022-09-29T13:26:28.395Z,1.20
2022-09-29T13:31:37.318Z,1.77
2022-09-29T13:36:47.187Z,1.00
2022-09-29T13:41:55.675Z,1.90
2022-09-29T13:47:32.683Z,1.35
2022-09-29T13:52:40.488Z,1.80
2022-09-29T13:57:51.269Z,3.53
2022-09-29T14:03:07.598Z,2.50
2022-09-29T14:08:18.273Z,2.38
2022-09-29T14:13:25.986Z,2.10
2022-09-29T14:18:45.767Z,1.20
2022-09-29T14:23:55.169Z,4.35
2022-09-29T14:28:57.335Z,4.25
2022-09-29T14:34:02.524Z,2.30
2022-09-29T14:39:25.721Z,3.50
2022-09-29T14:44:54.487Z,2.20
2022-09-29T14:50:20.825Z,3.78
2022-09-29T14:55:31.648Z,3.25
2022-09-29T15:01:03.163Z,2.20
2022-09-29T15:06:19.050Z,2.75
2022-09-29T15:11:28.018Z,2.45
2022-09-29T15:16:53.430Z,2.33
2022-09-29T15:22:38.131Z,2.78
2022-09-29T15:27:45.785Z,4.00
2022-09-29T15:32:50.271Z,6.00
2022-09-29T15:38:10.360Z,6.57
2022-09-29T15:43:28.231Z,6.22
2022-09-29T15:48:31.219Z,6.60
2022-09-29T15:53:33.497Z,8.18
2022-09-29T15:58:40.749Z,4.72
2022-09-29T16:03:57.604Z,2.95
2022-09-29T16:09:08.211Z,5.22
2022-09-29T16:14:28.025Z,3.08
2022-09-29T16:19:31.107Z,3.47
2022-09-29T16:24:36.702Z,5.60
2022-09-29T16:29:41.862Z,3.28
2022-09-29T16:34:46.593Z,5.63
2022-09-29T16:39:49.320Z,6.40
2022-09-29T16:44:55.802Z,3.40
2022-09-29T16:50:03.420Z,4.22
2022-09-29T16:55:27.982Z,5.72
2022-09-29T17:00:32.446Z,6.65
2022-09-29T17:05:37.623Z,6.28
2022-09-29T17:10:41.687Z,6.75
2022-09-29T17:15:45.558Z,6.88
2022-09-29T17:20:52.460Z,5.13
2022-09-29T17:26:14.167Z,7.00
2022-09-29T17:31:15.976Z,9.07
2022-09-29T17:36:18.438Z,6.25
2022-09-29T17:41:20.360Z,5.70
2022-09-29T17:46:28.266Z,6.43
2022-09-29T17:51:32.562Z,6.35
2022-09-29T17:56:40.094Z,6.57
2022-09-29T18:01:41.823Z,7.63
2022-09-29T18:06:44.525Z,6.25
2022-09-29T18:11:53.458Z,7.00
2022-09-29T18:16:56.626Z,8.55
2022-09-29T18:21:59.127Z,7.25
2022-09-29T18:27:01.190Z,6.28
2022-09-29T18:32:02.933Z,8.40
2022-09-29T18:37:05.688Z,9.27
2022-09-29T18:42:07.442Z,7.13
2022-09-29T18:47:12.148Z,7.93
2022-09-29T18:52:14.042Z,7.30
2022-09-29T18:57:15.771Z,6.95
2022-09-29T19:02:21.157Z,5.63
2022-09-29T19:07:25.266Z,8.07
2022-09-29T19:12:30.089Z,6.45
2022-09-29T19:17:34.194Z,6.78
2022-09-29T19:22:44.061Z,7.18
2022-09-29T19:27:51.792Z,7.15
2022-09-29T19:32:54.738Z,7.32
2022-09-29T19:37:59.123Z,11.13
2022-09-29T19:43:05.811Z,8.05
2022-09-29T19:48:14.896Z,7.70
2022-09-29T19:53:18.937Z,9.65
2022-09-29T19:58:20.717Z,9.38
2022-09-29T20:03:22.422Z,9.85
2022-09-29T20:08:26.476Z,6.53
2022-09-29T20:13:30.727Z,13.57
2022-09-29T20:18:37.597Z,8.95
2022-09-29T20:23:41.848Z,8.70
2022-09-29T20:28:44.620Z,8.57
2022-09-29T20:33:50.768Z,9.20
2022-09-29T20:39:01.456Z,10.60
2022-09-29T20:44:03.691Z,12.57
2022-09-29T20:49:05.462Z,12.93
2022-09-29T20:54:11.664Z,11.27
2022-09-29T20:59:21.235Z,9.90
2022-09-29T21:04:25.902Z,12.15
2022-09-29T21:09:27.744Z,12.85
2022-09-29T21:14:37.893Z,12.33
2022-09-29T21:19:42.935Z,10.53
2022-09-29T21:24:46.777Z,9.63
2022-09-29T21:29:51.552Z,11.25
2022-09-29T21:34:57.260Z,9.75
2022-09-29T21:40:03.851Z,7.40
2022-09-29T21:45:10.155Z,7.47
2022-09-29T21:50:14.350Z,9.60
2022-09-29T21:55:16.046Z,10.70
2022-09-29T22:00:18.329Z,12.40
2022-09-29T22:05:22.335Z,9.97
2022-09-29T22:10:27.187Z,9.10
2022-09-29T22:15:32.871Z,13.87
2022-09-29T22:20:38.598Z,11.33
2022-09-29T22:25:44.636Z,11.53
2022-09-29T22:30:50.970Z,11.37
2022-09-29T22:35:57.185Z,19.10
2022-09-29T22:41:01.449Z,12.57
2022-09-29T22:46:03.682Z,11.40
2022-09-29T22:51:08.975Z,11.53
2022-09-29T22:56:16.780Z,12.88
2022-09-29T23:01:22.144Z,14.80
2022-09-29T23:06:23.883Z,14.10
2022-09-29T23:11:31.212Z,14.77
2022-09-29T23:16:33.185Z,16.53
2022-09-29T23:21:34.966Z,14.97
2022-09-29T23:26:41.190Z,20.63
2022-09-29T23:31:49.366Z,21.23
2022-09-29T23:36:52.521Z,11.20
2022-09-29T23:41:54.555Z,11.27
2022-09-29T23:46:56.888Z,14.20
2022-09-29T23:52:02.756Z,12.03
2022-09-29T23:57:07.659Z,9.88
